Time;durP1;ratioP1;P1;durP2;ratioP2;P2;SDS_P1;SDS_P2;PMS_P1;PMS_P2;Temp;Humidity;BMP_temperature;BMP_pressure;BME280_temperature;BME280_humidity;BME280_pressure;Samples;Min_cycle;Max_cycle;Signal;HPM_P1;HPM_P2
2022/12/26 00:01:46;;;;;;;1.50;1.40;;;;;;;10.46;100.00;99696.25;5071785;28;20178;-77
2022/12/26 00:04:11;;;;;;;1.60;1.50;;;;;;;10.47;100.00;99697.84;5071379;28;20653;-76
2022/12/26 00:06:37;;;;;;;0.80;0.73;;;;;;;10.45;100.00;99711.03;5071415;28;20183;-77
2022/12/26 00:09:04;;;;;;;4.87;2.13;;;;;;;10.40;100.00;99712.00;5070291;28;20208;-76
2022/12/26 00:11:31;;;;;;;1.70;1.60;;;;;;;10.36;100.00;99697.41;5071702;28;20182;-76
2022/12/26 00:14:04;;;;;;;0.87;0.87;;;;;;;10.32;100.00;99707.38;5070015;28;20179;-77
2022/12/26 00:16:30;;;;;;;1.33;1.23;;;;;;;10.31;100.00;99697.59;5069975;28;20205;-77
2022/12/26 00:18:55;;;;;;;2.10;2.00;;;;;;;10.29;100.00;99700.66;5071349;28;20174;-77
2022/12/26 00:21:22;;;;;;;0.70;0.70;;;;;;;10.27;100.00;99692.00;5071823;28;20266;-76
2022/12/26 00:23:48;;;;;;;1.53;1.03;;;;;;;10.23;100.00;99687.50;5069910;28;20512;-76
2022/12/26 00:26:16;;;;;;;1.30;1.20;;;;;;;10.22;100.00;99691.34;5071165;28;20178;-76
2022/12/26 00:28:42;;;;;;;2.60;2.40;;;;;;;10.19;100.00;99692.78;5071218;28;20211;-77
2022/12/26 00:31:18;;;;;;;0.77;0.20;;;;;;;10.18;100.00;99676.75;5071165;28;20213;-77
2022/12/26 00:33:44;;;;;;;0.63;0.63;;;;;;;10.18;100.00;99679.47;5070891;28;20166;-77
2022/12/26 00:36:17;;;;;;;1.90;1.80;;;;;;;10.14;100.00;99669.22;5070951;28;20216;-77
2022/12/26 00:38:43;;;;;;;2.63;2.43;;;;;;;10.14;100.00;99657.50;5069798;28;20166;-77
2022/12/26 00:41:10;;;;;;;2.60;2.30;;;;;;;10.16;100.00;99659.91;5071244;28;20175;-77
2022/12/26 00:43:35;;;;;;;0.30;0.30;;;;;;;10.15;100.00;99659.09;5070722;28;20236;-77
2022/12/26 00:46:01;;;;;;;0.30;0.30;;;;;;;10.14;100.00;99650.09;5071169;28;20170;-77
2022/12/26 00:48:26;;;;;;;2.17;2.00;;;;;;;10.12;100.00;99654.25;5070817;28;20185;-77
2022/12/26 00:50:52;;;;;;;1.77;1.67;;;;;;;10.12;100.00;99651.53;5070935;28;20197;-76
2022/12/26 00:53:18;;;;;;;0.90;0.90;;;;;;;10.15;100.00;99661.81;5070449;28;20257;-77
2022/12/26 00:55:43;;;;;;;2.00;1.90;;;;;;;10.14;100.00;99668.41;5070655;28;20206;-77
2022/12/26 00:58:08;;;;;;;1.53;1.43;;;;;;;10.17;100.00;99669.69;5070837;28;20217;-77
2022/12/26 01:00:34;;;;;;;1.47;1.37;;;;;;;10.18;100.00;99671.28;5071063;28;20174;-77
2022/12/26 01:03:00;;;;;;;2.03;1.87;;;;;;;10.17;100.00;99688.78;5069106;28;20551;-77
2022/12/26 01:05:25;;;;;;;0.60;0.60;;;;;;;10.18;100.00;99669.34;5070738;28;20171;-77
2022/12/26 01:07:51;;;;;;;1.33;1.23;;;;;;;10.16;100.00;99679.00;5070660;28;20170;-77
2022/12/26 01:10:16;;;;;;;0.83;0.83;;;;;;;10.13;100.00;99700.38;5070592;28;20533;-77
2022/12/26 01:12:41;;;;;;;2.90;1.93;;;;;;;10.16;100.00;99687.19;5070726;28;20193;-76
2022/12/26 01:15:07;;;;;;;1.60;1.50;;;;;;;10.10;100.00;99673.69;5070506;28;20205;-76
2022/12/26 01:17:33;;;;;;;1.87;1.77;;;;;;;10.08;100.00;99686.06;5070862;28;20250;-77
2022/12/26 01:19:59;;;;;;;1.93;1.83;;;;;;;10.08;100.00;99684.16;5070512;28;20181;-77
2022/12/26 01:22:25;;;;;;;3.47;2.10;;;;;;;10.10;100.00;99686.53;5069183;28;20215;-77
2022/12/26 01:24:54;;;;;;;1.17;1.17;;;;;;;10.09;100.00;99680.28;5070556;28;20217;-77
2022/12/26 01:27:20;;;;;;;2.10;1.60;;;;;;;10.06;100.00;99691.88;5070693;28;20175;-77
2022/12/26 01:29:45;;;;;;;1.07;1.07;;;;;;;10.03;100.00;99689.78;5070538;28;20630;-77
2022/12/26 01:32:11;;;;;;;1.03;1.03;;;;;;;10.03;100.00;99678.88;5070427;28;20178;-77
2022/12/26 01:34:36;;;;;;;1.47;1.37;;;;;;;10.04;100.00;99685.13;5070140;28;20175;-77
2022/12/26 01:37:01;;;;;;;1.67;1.57;;;;;;;10.05;100.00;99690.25;5070550;28;20209;-77
2022/12/26 01:39:27;;;;;;;2.63;1.67;;;;;;;10.08;100.00;99694.25;5070658;28;20189;-77
2022/12/26 01:41:52;;;;;;;1.93;1.80;;;;;;;10.08;100.00;99697.78;5070414;28;20756;-77
2022/12/26 01:44:55;;;;;;;2.23;2.03;;;;;;;10.09;100.00;99699.41;5069863;28;20273;-77
2022/12/26 01:47:24;;;;;;;1.80;1.70;;;;;;;10.10;100.00;99695.53;5070212;28;20181;-77
2022/12/26 01:49:53;;;;;;;0.67;0.67;;;;;;;10.08;100.00;99703.25;5070530;28;20261;-77
2022/12/26 01:52:27;;;;;;;1.40;0.93;;;;;;;10.08;100.00;99722.34;5070489;28;20175;-77
2022/12/26 01:54:54;;;;;;;8.20;1.00;;;;;;;10.08;100.00;99719.63;5069996;28;20185;-77
2022/12/26 01:57:28;;;;;;;0.73;0.73;;;;;;;10.09;100.00;99713.03;5070034;28;20627;-76
2022/12/26 01:59:56;;;;;;;0.80;0.77;;;;;;;10.08;100.00;99711.44;5070405;28;20174;-77
2022/12/26 02:02:22;;;;;;;1.43;1.33;;;;;;;10.10;100.00;99714.63;5070120;28;20254;-77
2022/12/26 02:07:37;;;;;;;2.13;2.00;;;;;;;10.13;100.00;99732.31;5074470;28;20225;-76
2022/12/26 02:10:04;;;;;;;2.23;2.03;;;;;;;10.10;100.00;99741.94;5073699;28;20177;-77
2022/12/26 02:12:33;;;;;;;1.17;1.10;;;;;;;10.14;100.00;99733.91;5073667;28;20163;-76
2022/12/26 02:15:00;;;;;;;1.60;1.50;;;;;;;10.18;100.00;99750.44;5072307;28;20194;-77
2022/12/26 02:17:26;;;;;;;3.67;1.63;;;;;;;10.18;100.00;99740.31;5073581;28;20241;-77
2022/12/26 02:19:58;;;;;;;1.13;1.10;;;;;;;10.15;100.00;99743.72;5073675;28;20642;-77
2022/12/26 02:22:44;;;;;;;1.83;1.73;;;;;;;10.16;100.00;99753.50;5073454;28;20384;-77
2022/12/26 02:25:46;;;;;;;1.20;1.20;;;;;;;10.14;100.00;99742.09;5073814;28;20235;-77
2022/12/26 02:28:17;;;;;;;1.60;1.50;;;;;;;10.11;100.00;99757.19;5073442;28;20255;-76
2022/12/26 02:30:57;;;;;;;6.43;2.23;;;;;;;10.13;100.00;99757.69;5073804;28;20202;-76
2022/12/26 02:33:36;;;;;;;2.33;2.23;;;;;;;10.13;100.00;99768.59;5073275;28;20174;-77
2022/12/26 02:36:10;;;;;;;2.13;2.03;;;;;;;10.13;100.00;99754.16;5073443;28;20198;-77
2022/12/26 02:38:54;;;;;;;0.93;0.93;;;;;;;10.11;100.00;99751.72;5073311;28;20175;-77
2022/12/26 02:41:29;;;;;;;2.33;2.13;;;;;;;10.10;100.00;99760.25;5073250;28;20244;-76
2022/12/26 02:47:22;;;;;;;0.00;0.00;;;;;;;10.06;100.00;99749.19;5073543;28;20170;-77
2022/12/26 03:13:11;;;;;;;0.00;0.00;;;;;;;10.04;100.00;99762.34;5072714;28;20174;-77
2022/12/26 03:18:28;;;;;;;1.63;1.53;;;;;;;10.02;100.00;99747.44;5072895;28;20270;-77
2022/12/26 03:20:54;;;;;;;0.97;0.70;;;;;;;10.02;100.00;99750.16;5073007;28;20167;-77
2022/12/26 03:23:19;;;;;;;1.70;1.60;;;;;;;10.01;100.00;99746.63;5072772;28;20675;-76
2022/12/26 03:28:35;;;;;;;1.10;1.00;;;;;;;10.02;100.00;99748.22;5072356;28;20185;-76
2022/12/26 03:31:05;;;;;;;0.93;0.63;;;;;;;10.02;100.00;99750.16;5072408;28;20749;-77
2022/12/26 03:36:47;;;;;;;1.47;1.37;;;;;;;10.02;100.00;99750.16;5072107;28;20263;-76
2022/12/26 04:20:39;;;;;;;0.70;0.70;;;;;;;9.99;100.00;99772.66;5071673;28;20208;-77
2022/12/26 04:45:52;;;;;;;4.50;4.10;;;;;;;9.82;100.00;99768.00;5071105;28;20241;-77
2022/12/26 04:51:01;;;;;;;0.93;0.93;;;;;;;9.72;100.00;99771.06;5071277;28;20620;-76
2022/12/26 04:53:26;;;;;;;8.80;3.27;;;;;;;9.74;100.00;99777.00;5071191;28;20174;-77
2022/12/26 04:55:51;;;;;;;4.27;3.27;;;;;;;9.73;100.00;99770.75;5070742;28;20233;-77
2022/12/26 04:58:16;;;;;;;0.30;0.30;;;;;;;9.73;100.00;99769.94;5070830;28;20712;-76
2022/12/26 05:00:42;;;;;;;0.47;0.47;;;;;;;9.72;100.00;99777.31;5070666;28;20186;-76
2022/12/26 05:11:27;;;;;;;0.97;0.97;;;;;;;9.72;100.00;99774.59;5071233;28;20185;-76
2022/12/26 05:13:53;;;;;;;1.27;1.17;;;;;;;9.72;100.00;99785.50;5070475;28;20378;-77
2022/12/26 05:30:05;;;;;;;0.80;0.43;;;;;;;9.67;100.00;99812.13;5070799;28;20219;-76
2022/12/26 05:35:14;;;;;;;0.97;0.97;;;;;;;9.64;100.00;99815.50;5070341;28;20232;-77
2022/12/26 05:37:39;;;;;;;1.60;1.37;;;;;;;9.62;100.00;99821.28;5070401;28;20206;-77
2022/12/26 05:40:05;;;;;;;0.73;0.73;;;;;;;9.62;100.00;99824.00;5071863;28;20186;-76
2022/12/26 05:42:31;;;;;;;1.17;1.17;;;;;;;9.62;100.00;99817.75;5072865;28;20180;-77
2022/12/26 05:44:56;;;;;;;0.83;0.83;;;;;;;9.64;100.00;99827.22;5072784;28;20231;-77
2022/12/26 05:47:21;;;;;;;1.57;1.47;;;;;;;9.66;100.00;99819.50;5074194;28;20202;-77
2022/12/26 05:49:46;;;;;;;2.43;1.97;;;;;;;9.65;100.00;99826.09;5074254;28;20690;-76
2022/12/26 05:52:12;;;;;;;1.57;1.47;;;;;;;9.63;100.00;99833.78;5074033;28;20266;-77
2022/12/26 05:54:37;;;;;;;0.73;0.73;;;;;;;9.62;100.00;99829.47;5073882;28;20174;-76
2022/12/26 05:57:02;;;;;;;1.80;1.70;;;;;;;9.61;100.00;99840.69;5073775;28;20216;-76
2022/12/26 05:59:28;;;;;;;3.23;1.87;;;;;;;9.60;100.00;99833.63;5074214;28;20182;-76
2022/12/26 06:01:54;;;;;;;0.10;0.10;;;;;;;9.59;100.00;99830.09;5074044;28;20170;-77
2022/12/26 06:04:19;;;;;;;1.57;1.50;;;;;;;9.58;100.00;99824.97;5073634;28;20263;-76
2022/12/26 06:06:44;;;;;;;0.10;0.10;;;;;;;9.56;100.00;99841.66;5074030;28;20179;-77
2022/12/26 06:09:09;;;;;;;0.43;0.43;;;;;;;9.52;100.00;99836.00;5072535;28;20399;-77
2022/12/26 06:11:35;;;;;;;1.57;1.47;;;;;;;9.50;100.00;99834.75;5073649;28;20182;-77
2022/12/26 06:14:00;;;;;;;2.27;2.03;;;;;;;9.46;100.00;99840.03;5073386;28;20194;-76
2022/12/26 06:16:26;;;;;;;1.50;1.40;;;;;;;9.41;100.00;99840.19;5073689;28;20201;-77
2022/12/26 06:18:53;;;;;;;1.73;1.63;;;;;;;9.36;100.00;99834.06;5073595;28;20216;-77
2022/12/26 06:21:19;;;;;;;6.37;2.83;;;;;;;9.32;100.00;99842.09;5073913;28;20580;-77
2022/12/26 06:23:46;;;;;;;1.63;1.53;;;;;;;9.32;100.00;99844.81;5073283;28;20253;-76
2022/12/26 06:26:11;;;;;;;3.80;3.50;;;;;;;9.32;100.00;99828.47;5073584;28;20186;-76
2022/12/26 06:28:39;;;;;;;3.43;3.13;;;;;;;9.37;100.00;99841.94;5073761;28;20575;-76
2022/12/26 06:31:09;;;;;;;3.80;3.50;;;;;;;9.41;100.00;99834.75;5073400;28;20174;-77
2022/12/26 06:33:35;;;;;;;5.10;4.73;;;;;;;9.42;100.00;99835.53;5073136;28;20690;-76
2022/12/26 06:36:02;;;;;;;3.73;3.10;;;;;;;9.42;100.00;99839.06;5073120;28;20499;-76
2022/12/26 06:38:27;;;;;;;5.10;4.70;;;;;;;9.44;100.00;99844.19;5073322;28;20171;-77
2022/12/26 06:40:53;;;;;;;3.60;3.30;;;;;;;9.44;100.00;99836.03;5073395;28;20174;-76
2022/12/26 06:43:18;;;;;;;4.40;4.10;;;;;;;9.49;100.00;99844.84;5072921;28;20178;-77
2022/12/26 06:45:43;;;;;;;3.23;2.93;;;;;;;9.52;100.00;99846.94;5071829;28;20261;-76
2022/12/26 06:48:09;;;;;;;4.13;3.73;;;;;;;9.54;100.00;99847.41;5073192;28;20167;-76
2022/12/26 06:50:36;;;;;;;5.00;3.53;;;;;;;9.53;100.00;99847.72;5072863;28;20200;-77
2022/12/26 06:53:01;;;;;;;4.23;3.93;;;;;;;9.56;100.00;99849.84;5070811;28;20178;-76
2022/12/26 06:55:26;;;;;;;5.13;4.73;;;;;;;9.54;100.00;99852.84;5072747;28;20203;-77
2022/12/26 06:57:52;;;;;;;3.50;3.20;;;;;;;9.54;100.00;99871.16;5072788;28;20174;-77
2022/12/26 07:00:17;;;;;;;2.97;2.70;;;;;;;9.54;100.00;99852.06;5072810;28;20427;-77
2022/12/26 07:02:43;;;;;;;3.70;3.40;;;;;;;9.49;100.00;99844.03;5072624;28;20261;-76
2022/12/26 07:05:08;;;;;;;1.63;1.53;;;;;;;9.47;100.00;99846.28;5071431;28;20178;-76
2022/12/26 07:07:33;;;;;;;3.47;3.27;;;;;;;9.44;100.00;99852.38;5072621;28;20170;-77
2022/12/26 07:09:59;;;;;;;2.73;2.53;;;;;;;9.39;100.00;99850.59;5072473;28;20170;-77
2022/12/26 07:12:24;;;;;;;2.07;1.97;;;;;;;9.32;100.00;99852.19;5072528;28;20274;-76
2022/12/26 07:14:49;;;;;;;2.07;1.97;;;;;;;9.24;100.00;99861.94;5072150;28;20531;-76
2022/12/26 07:17:15;;;;;;;2.20;2.07;;;;;;;9.20;100.00;99858.25;5072633;28;20224;-77
2022/12/26 07:19:40;;;;;;;4.27;3.53;;;;;;;9.18;100.00;99871.41;5072484;28;20170;-76
2022/12/26 07:22:05;;;;;;;2.40;2.20;;;;;;;9.17;100.00;99867.06;5072479;28;20182;-76
2022/12/26 07:24:30;;;;;;;1.07;1.07;;;;;;;9.16;100.00;99877.16;5072308;28;20175;-77
2022/12/26 07:26:56;;;;;;;1.63;1.53;;;;;;;9.12;100.00;99886.28;5072442;28;20185;-77
2022/12/26 07:29:21;;;;;;;2.50;1.07;;;;;;;9.11;100.00;99890.13;5071884;28;20174;-77
2022/12/26 07:31:47;;;;;;;3.23;2.90;;;;;;;9.14;100.00;99886.78;5072403;28;20638;-76
2022/12/26 07:34:12;;;;;;;1.93;1.83;;;;;;;9.12;100.00;99889.03;5072014;28;20178;-76
2022/12/26 07:36:38;;;;;;;2.10;1.13;;;;;;;9.13;100.00;99912.44;5072194;28;20198;-76
2022/12/26 07:39:03;;;;;;;2.53;2.33;;;;;;;9.14;100.00;99903.13;5071980;28;20635;-77
2022/12/26 07:44:12;;;;;;;1.80;1.70;;;;;;;9.18;100.00;99895.91;5071853;28;20173;-76
2022/12/26 07:46:38;;;;;;;3.77;3.47;;;;;;;9.23;100.00;99903.94;5071856;28;20266;-76
2022/12/26 07:49:03;;;;;;;3.07;2.50;;;;;;;9.26;100.00;99903.34;5071802;28;20269;-76
2022/12/26 07:51:28;;;;;;;2.40;1.33;;;;;;;9.31;100.00;99903.19;5071821;28;20576;-77
2022/12/26 07:53:54;;;;;;;1.93;1.83;;;;;;;9.28;100.00;99906.53;5071257;28;20266;-76
2022/12/26 07:56:19;;;;;;;5.37;3.80;;;;;;;9.31;100.00;99914.09;5071710;28;20238;-76
2022/12/26 07:58:48;;;;;;;2.57;2.37;;;;;;;9.29;100.00;99926.44;5071733;28;20171;-76
2022/12/26 08:01:13;;;;;;;1.50;1.17;;;;;;;9.28;100.00;99930.28;5071552;28;20696;-76
2022/12/26 08:03:39;;;;;;;1.77;1.57;;;;;;;9.28;100.00;99944.72;5070981;28;20186;-76
2022/12/26 08:06:04;;;;;;;1.47;1.37;;;;;;;9.28;100.00;99933.81;5071407;28;20173;-76
2022/12/26 08:08:30;;;;;;;0.93;0.93;;;;;;;9.28;100.00;99925.63;5071474;28;20194;-76
2022/12/26 08:10:59;;;;;;;1.60;1.47;;;;;;;9.29;100.00;99923.72;5071296;28;20174;-76
2022/12/26 08:13:26;;;;;;;0.70;0.70;;;;;;;9.32;100.00;99929.31;5071323;28;20709;-75
2022/12/26 08:15:51;;;;;;;0.87;0.87;;;;;;;9.31;100.00;99919.53;5071438;28;20202;-75
2022/12/26 08:18:17;;;;;;;1.30;1.20;;;;;;;9.31;100.00;99932.38;5071538;28;20507;-75
2022/12/26 08:20:42;;;;;;;1.00;0.90;;;;;;;9.33;100.00;99933.66;5071155;28;20174;-75
2022/12/26 08:23:07;;;;;;;2.67;1.70;;;;;;;9.32;100.00;99939.44;5069644;28;20186;-75
2022/12/26 08:25:33;;;;;;;2.20;1.00;;;;;;;9.32;100.00;99934.78;5070940;28;20593;-76
2022/12/26 08:27:58;;;;;;;0.80;0.80;;;;;;;9.30;100.00;99930.75;5071420;28;20171;-74
2022/12/26 08:30:23;;;;;;;24.97;3.43;;;;;;;9.26;100.00;99933.31;5071183;28;20178;-75
2022/12/26 08:32:50;;;;;;;1.97;1.83;;;;;;;9.29;100.00;99927.22;5070842;28;20541;-75
2022/12/26 08:35:15;;;;;;;3.30;3.10;;;;;;;9.27;100.00;99926.75;5069469;28;20275;-75
2022/12/26 08:37:41;;;;;;;3.80;3.10;;;;;;;9.27;100.00;99926.75;5070910;28;20216;-75
2022/12/26 08:40:07;;;;;;;2.43;2.23;;;;;;;9.28;100.00;99943.91;5071155;28;20315;-75
2022/12/26 08:42:33;;;;;;;2.20;2.00;;;;;;;9.27;100.00;99943.09;5070746;28;20634;-75
2022/12/26 08:44:58;;;;;;;2.20;2.03;;;;;;;9.25;100.00;99937.13;5070727;28;20170;-75
2022/12/26 08:47:26;;;;;;;2.60;2.40;;;;;;;9.25;100.00;99937.13;5070782;28;20269;-75
2022/12/26 08:49:51;;;;;;;1.60;1.50;;;;;;;9.27;100.00;99926.75;5070677;28;20206;-75
2022/12/26 08:52:16;;;;;;;1.13;1.13;;;;;;;9.28;100.00;99936.53;5070489;28;20665;-75
2022/12/26 08:54:41;;;;;;;2.93;2.73;;;;;;;9.25;100.00;99932.50;5070352;28;20185;-75
2022/12/26 08:57:07;;;;;;;2.13;2.03;;;;;;;9.25;100.00;99939.88;5070388;28;20237;-75
2022/12/26 08:59:32;;;;;;;4.47;4.07;;;;;;;9.24;100.00;99940.97;5070731;28;20175;-75
2022/12/26 09:01:58;;;;;;;3.13;2.40;;;;;;;9.28;100.00;99952.88;5070785;28;20187;-76
2022/12/26 09:04:23;;;;;;;3.60;3.30;;;;;;;9.28;100.00;99952.09;5070273;28;20191;-75
2022/12/26 09:06:48;;;;;;;3.10;2.90;;;;;;;9.29;100.00;99945.50;5070446;28;20189;-76
2022/12/26 09:09:14;;;;;;;3.47;3.17;;;;;;;9.31;100.00;99959.63;5070850;28;20263;-76
2022/12/26 09:11:40;;;;;;;3.57;3.27;;;;;;;9.29;100.00;99965.41;5070228;28;20178;-75
2022/12/26 09:14:06;;;;;;;4.37;3.93;;;;;;;9.31;100.00;99951.44;5069949;28;20262;-75
2022/12/26 09:16:35;;;;;;;2.87;2.67;;;;;;;9.34;100.00;99970.69;5070203;28;20573;-76
2022/12/26 09:19:02;;;;;;;1.90;1.73;;;;;;;9.36;100.00;99990.25;5070441;28;20182;-76
2022/12/26 09:21:29;;;;;;;2.23;2.13;;;;;;;9.33;100.00;99971.81;5070196;28;20200;-76
2022/12/26 09:24:06;;;;;;;2.97;2.77;;;;;;;9.31;100.00;99967.81;5069510;28;20257;-76
2022/12/26 09:26:32;;;;;;;2.80;2.60;;;;;;;9.28;100.00;99969.25;5063599;28;20657;-75
2022/12/26 09:28:57;;;;;;;4.03;2.00;;;;;;;9.25;100.00;99959.75;5070218;28;20171;-76
2022/12/26 09:31:25;;;;;;;1.03;1.03;;;;;;;9.24;100.00;99954.63;5070184;28;20212;-76
2022/12/26 09:33:52;;;;;;;0.90;0.90;;;;;;;9.26;100.00;99976.94;5069546;28;20169;-76
2022/12/26 09:36:23;;;;;;;2.33;2.13;;;;;;;9.28;100.00;99979.34;5069664;28;20650;-76
2022/12/26 09:38:48;;;;;;;3.30;3.07;;;;;;;9.26;100.00;99968.75;5070321;28;20174;-75
2022/12/26 09:41:35;;;;;;;1.73;1.63;;;;;;;9.30;100.00;99960.75;5070152;28;20174;-76
2022/12/26 09:44:43;;;;;;;4.33;3.97;;;;;;;9.32;100.00;99959.31;5070401;28;20175;-76
2022/12/26 09:47:14;;;;;;;2.70;2.50;;;;;;;9.42;100.00;99964.50;5024911;28;20548;-76
2022/12/26 09:50:05;;;;;;;2.13;1.93;;;;;;;9.48;100.00;99979.56;5069963;28;20546;-76
2022/12/26 09:52:34;;;;;;;3.57;3.30;;;;;;;9.50;100.00;99966.44;5054568;28;20378;-76
2022/12/26 09:55:08;;;;;;;4.53;4.00;;;;;;;9.55;100.00;99984.59;5070049;28;20359;-76
2022/12/26 09:57:48;;;;;;;2.80;2.60;;;;;;;9.59;100.00;99985.56;5068879;28;20547;-77
2022/12/26 10:00:20;;;;;;;2.77;2.57;;;;;;;9.61;100.00;99966.16;5070190;28;20183;-77
2022/12/26 10:02:51;;;;;;;1.60;1.50;;;;;;;9.60;100.00;99970.81;5069505;28;20167;-76
2022/12/26 10:05:16;;;;;;;1.83;1.60;;;;;;;9.61;100.00;99971.59;5069904;28;20554;-75
2022/12/26 10:07:47;;;;;;;9.23;3.90;;;;;;;9.62;100.00;99971.28;5069779;28;20261;-74
2022/12/26 10:10:24;;;;;;;3.57;3.27;;;;;;;9.64;100.00;99979.16;5069659;28;20250;-74
2022/12/26 10:13:13;;;;;;;3.07;2.87;;;;;;;9.66;100.00;99976.91;5069617;28;20224;-74
2022/12/26 10:15:51;;;;;;;4.63;1.83;;;;;;;9.68;100.00;99969.19;5069530;28;20201;-74
2022/12/26 10:18:22;;;;;;;3.03;2.83;;;;;;;9.69;100.00;99971.63;5069818;28;20170;-74
2022/12/26 10:20:55;;;;;;;2.70;2.50;;;;;;;9.71;100.00;99976.78;5070016;28;20166;-74
2022/12/26 10:23:42;;;;;;;0.87;0.87;;;;;;;9.74;100.00;99992.50;5069512;28;20167;-75
2022/12/26 10:26:28;;;;;;;1.40;1.37;;;;;;;9.75;100.00;99983.19;5069325;28;20159;-75
2022/12/26 10:29:02;;;;;;;2.53;2.33;;;;;;;9.74;100.00;99985.13;5073224;28;20173;-75
2022/12/26 10:31:35;;;;;;;4.63;2.30;;;;;;;9.77;100.00;99984.47;5073573;28;20178;-75
2022/12/26 10:34:07;;;;;;;2.00;1.90;;;;;;;9.81;100.00;99981.91;5072840;28;20170;-77
2022/12/26 10:36:38;;;;;;;2.40;1.77;;;;;;;9.82;100.00;99975.34;5073012;28;20211;-74
2022/12/26 10:39:13;;;;;;;2.20;2.10;;;;;;;9.84;100.00;99986.75;5073059;28;20167;-74
2022/12/26 10:41:44;;;;;;;2.37;1.70;;;;;;;9.87;100.00;99979.84;5072900;28;20169;-77
2022/12/26 10:44:11;;;;;;;0.40;0.40;;;;;;;9.90;100.00;99982.75;5073132;28;20174;-77
2022/12/26 10:47:18;;;;;;;2.50;2.30;;;;;;;9.88;100.00;99976.00;5055474;28;20554;-75
2022/12/26 10:49:46;;;;;;;2.13;2.03;;;;;;;9.92;100.00;99985.16;5072443;28;20166;-76
2022/12/26 10:52:12;;;;;;;2.90;0.93;;;;;;;9.95;100.00;99979.84;5072972;28;20726;-75
2022/12/26 10:54:38;;;;;;;1.60;1.50;;;;;;;10.01;100.00;99983.25;5071347;28;20178;-76
2022/12/26 10:57:07;;;;;;;1.03;0.87;;;;;;;10.05;100.00;99965.91;5071282;28;20202;-75
2022/12/26 10:59:44;;;;;;;1.47;1.37;;;;;;;10.10;100.00;99971.22;5072570;28;20630;-75
2022/12/26 11:02:31;;;;;;;2.03;1.83;;;;;;;10.11;100.00;99961.09;5072622;28;20182;-75
2022/12/26 11:05:05;;;;;;;1.47;1.00;;;;;;;10.10;100.00;99973.94;5069711;28;20270;-75
2022/12/26 11:07:35;;;;;;;1.43;1.33;;;;;;;10.08;100.00;99969.94;5072210;28;20331;-75
2022/12/26 11:10:01;;;;;;;1.57;1.47;;;;;;;10.10;100.00;99973.94;5071021;28;20181;-75
2022/12/26 11:12:49;;;;;;;1.93;1.83;;;;;;;10.09;100.00;99975.06;5072139;28;20267;-75
2022/12/26 11:15:21;;;;;;;1.00;0.93;;;;;;;10.13;100.00;99978.78;5070988;28;20582;-75
2022/12/26 11:17:49;;;;;;;1.17;1.07;;;;;;;10.19;100.00;99970.44;5071749;28;20191;-75
2022/12/26 11:20:14;;;;;;;1.47;1.37;;;;;;;10.23;100.00;99964.03;5072491;28;20163;-75
2022/12/26 11:22:41;;;;;;;0.10;0.10;;;;;;;10.29;100.00;99975.59;5072149;28;20232;-75
2022/12/26 11:25:09;;;;;;;5.10;1.40;;;;;;;10.32;99.26;99961.31;5072145;28;20472;-75
2022/12/26 11:27:36;;;;;;;1.63;1.53;;;;;;;10.33;98.61;99982.81;5071781;28;20198;-75
2022/12/26 11:30:17;;;;;;;0.73;0.73;;;;;;;10.34;98.51;99968.06;5071940;28;20175;-74
2022/12/26 11:32:45;;;;;;;4.00;1.23;;;;;;;10.36;97.43;99967.72;5071693;28;20235;-75
2022/12/26 11:35:22;;;;;;;1.23;1.13;;;;;;;10.37;97.19;99970.13;5071741;28;20167;-75
2022/12/26 11:37:54;;;;;;;0.70;0.70;;;;;;;10.40;95.59;99953.09;5071526;28;20201;-75
2022/12/26 11:40:38;;;;;;;1.20;1.20;;;;;;;10.46;93.84;99983.78;5070349;28;20181;-74
2022/12/26 11:43:15;;;;;;;0.90;0.90;;;;;;;10.46;92.75;99967.41;5071704;28;20197;-75
2022/12/26 11:45:43;;;;;;;1.03;0.73;;;;;;;10.44;92.80;99961.47;5071510;28;20167;-74
2022/12/26 11:48:22;;;;;;;3.23;0.97;;;;;;;10.45;91.46;99967.72;5071764;28;20525;-74
2022/12/26 11:50:48;;;;;;;1.70;0.80;;;;;;;10.43;90.96;99951.66;5071564;28;20245;-83
2022/12/26 11:53:17;;;;;;;2.53;1.60;;;;;;;10.46;89.48;99953.75;5071185;28;20182;-75
2022/12/26 11:55:43;;;;;;;0.17;0.17;;;;;;;10.44;89.66;99956.00;5071391;28;20205;-75
2022/12/26 11:58:08;;;;;;;1.00;1.00;;;;;;;10.43;89.29;99952.47;5071293;28;20472;-74
2022/12/26 12:01:04;;;;;;;0.87;0.87;;;;;;;10.47;88.88;99949.91;5070269;28;20174;-74
2022/12/26 12:03:43;;;;;;;0.73;0.73;;;;;;;10.48;87.91;99954.22;5062456;28;20584;-75
2022/12/26 12:06:27;;;;;;;1.87;0.60;;;;;;;10.48;88.25;99956.97;5073515;28;20244;-74
2022/12/26 12:08:52;;;;;;;1.50;1.40;;;;;;;10.47;87.99;99957.28;5079871;28;20178;-74
2022/12/26 12:11:21;;;;;;;0.70;0.70;;;;;;;10.51;87.65;99958.25;5071730;28;20171;-74
2022/12/26 12:14:12;;;;;;;0.80;0.80;;;;;;;10.50;88.52;99946.50;5071341;28;20174;-75
2022/12/26 12:16:53;;;;;;;1.00;1.00;;;;;;;10.48;88.28;99934.31;5071154;28;20662;-75
2022/12/26 12:19:41;;;;;;;1.50;1.40;;;;;;;10.50;88.52;99949.25;5071467;28;20231;-74
2022/12/26 12:22:18;;;;;;;8.63;1.13;;;;;;;10.49;88.55;99938.66;5071364;28;20650;-75
2022/12/26 12:25:12;;;;;;;3.67;2.27;;;;;;;10.47;88.33;99935.44;5071354;28;20626;-74
2022/12/26 12:28:00;;;;;;;0.80;0.80;;;;;;;10.40;88.77;99933.19;5069988;28;20179;-74
2022/12/26 12:30:50;;;;;;;1.27;1.03;;;;;;;10.38;89.05;99924.50;5071370;28;20178;-74
2022/12/26 12:33:26;;;;;;;1.90;1.07;;;;;;;10.31;89.52;99938.66;5070915;28;20228;-75
2022/12/26 12:36:22;;;;;;;0.70;0.70;;;;;;;10.27;90.08;99934.97;5069836;28;20657;-75
2022/12/26 12:38:53;;;;;;;1.10;0.97;;;;;;;10.26;89.87;99929.81;5071045;28;20219;-75
2022/12/26 12:41:30;;;;;;;1.00;1.00;;;;;;;10.21;90.83;99944.44;5071058;28;20171;-74
2022/12/26 12:44:04;;;;;;;3.63;1.50;;;;;;;10.21;90.67;99930.78;5070744;28;20185;-74
2022/12/26 12:47:01;;;;;;;1.23;1.13;;;;;;;10.21;90.77;99929.94;5070919;28;20537;-74
2022/12/26 12:49:27;;;;;;;1.00;0.93;;;;;;;10.28;90.68;99933.06;5070275;28;20170;-74
2022/12/26 12:52:11;;;;;;;0.80;0.80;;;;;;;10.27;90.51;99926.78;5070811;28;20171;-74
2022/12/26 12:54:39;;;;;;;0.53;0.53;;;;;;;10.27;91.24;99909.56;5070783;28;20186;-74
2022/12/26 12:57:39;;;;;;;1.00;0.90;;;;;;;10.31;91.60;99910.56;5070739;28;20275;-74
2022/12/26 13:00:13;;;;;;;0.70;0.70;;;;;;;10.37;90.81;99899.13;5070781;28;20170;-74
2022/12/26 13:02:58;;;;;;;4.43;0.87;;;;;;;10.40;90.03;99901.22;5070232;28;20232;-74
2022/12/26 13:05:42;;;;;;;0.70;0.70;;;;;;;10.41;90.40;99908.31;5070593;28;20210;-74
2022/12/26 13:08:21;;;;;;;3.40;0.67;;;;;;;10.38;89.78;99910.84;5069479;28;20185;-74
2022/12/26 13:10:52;;;;;;;3.30;1.33;;;;;;;10.34;89.93;99912.63;5070486;28;20520;-74
2022/12/26 13:13:32;;;;;;;1.97;1.33;;;;;;;10.31;89.70;99914.09;5070317;28;20179;-75
2022/12/26 13:16:09;;;;;;;1.07;0.67;;;;;;;10.29;90.25;99907.34;5069859;28;20692;-74
2022/12/26 13:18:39;;;;;;;1.07;0.97;;;;;;;10.25;90.20;99914.56;5070504;28;20178;-74
2022/12/26 13:21:09;;;;;;;0.50;0.47;;;;;;;10.22;90.60;99917.94;5070638;28;20205;-75
2022/12/26 13:26:41;;;;;;;0.90;0.80;;;;;;;10.26;89.60;99910.69;5070424;28;20177;-75
2022/12/26 13:29:39;;;;;;;3.23;0.90;;;;;;;10.24;89.68;99921.16;5070245;28;20220;-74
2022/12/26 13:32:13;;;;;;;1.20;1.07;;;;;;;10.26;88.97;99916.16;5069375;28;20539;-74
2022/12/26 13:34:38;;;;;;;0.70;0.70;;;;;;;10.27;88.78;99918.59;5070046;28;20166;-76
2022/12/26 13:37:04;;;;;;;0.40;0.37;;;;;;;10.25;88.57;99920.00;5071759;28;20236;-76
2022/12/26 13:39:33;;;;;;;0.33;0.33;;;;;;;10.24;89.35;99923.88;5071102;28;20281;-76
2022/12/26 13:44:51;;;;;;;9.83;1.47;;;;;;;10.24;89.41;99929.34;5071530;28;20549;-77
2022/12/26 13:47:37;;;;;;;7.23;0.73;;;;;;;10.19;89.59;99924.81;5070769;28;20174;-77
2022/12/26 13:50:45;;;;;;;4.13;1.63;;;;;;;10.18;90.05;99920.47;5070364;28;20275;-77
2022/12/26 13:53:25;;;;;;;0.60;0.60;;;;;;;10.16;89.88;99905.56;5069762;28;20658;-77
2022/12/26 13:56:03;;;;;;;0.57;0.57;;;;;;;10.14;90.34;99925.78;5069811;28;20209;-77
2022/12/26 13:58:31;;;;;;;1.40;0.77;;;;;;;10.11;90.25;99904.56;5069864;28;20174;-77
2022/12/26 14:01:27;;;;;;;0.70;0.70;;;;;;;10.14;90.57;99906.69;5069963;28;20221;-77
2022/12/26 14:04:22;;;;;;;0.77;0.77;;;;;;;10.17;89.71;99913.41;5072118;28;20546;-77
2022/12/26 14:06:59;;;;;;;2.10;1.23;;;;;;;10.14;89.80;99912.16;5073650;28;20174;-76